Marham, United Kingdom
Current Conditions -  °F | °C
As of 6:50 AM on Saturday 20 Dec 2014 (Local Time) from EGYM Reporting Station
Broken Clouds Broken Clouds  
Wind Chill: 33°   Ceiling: 4800
Heat Index: 43°   Visibility: 6mi
Dew Point: 37°   Wind: 25mph
Humidity: 81%   Direction: 240°WSW
Pressure: 30.09"   Gusts: NA
Location:  52.66°N, 0.52°E
Report Text: EGYM 200650Z AUTO 24022KT 9999 FEW039/// BKN048/// 06/03 Q1019 RERA
Loading
Personal Weather Stations






























Interactive Weather Map New forecast layout! Learn more

10-Day Weather Forecast

Advertisements
Track Severe Weather on mobile